Time;durP1;ratioP1;P1;durP2;ratioP2;P2;SDS_P1;SDS_P2;PMS_P1;PMS_P2;Temp;Humidity;BMP_temperature;BMP_pressure;BME280_temperature;BME280_humidity;BME280_pressure;Samples;Min_cycle;Max_cycle;Signal;HPM_P1;HPM_P2
2021/03/02 00:00:46;;;;;;;5.05;2.90;;;;;;;24.26;31.33;157521.78;1608704;88;21216;-69
2021/03/02 00:03:19;;;;;;;5.72;3.12;;;;;;;24.29;31.34;157528.44;1600450;88;21412;-70
2021/03/02 00:05:51;;;;;;;4.37;2.67;;;;;;;24.34;31.31;157543.03;1593731;88;21245;-69
2021/03/02 00:08:24;;;;;;;6.92;3.60;;;;;;;24.35;31.29;157544.33;1603825;89;21285;-69
2021/03/02 00:11:03;;;;;;;5.95;3.02;;;;;;;24.35;31.28;157545.69;1606604;88;21183;-70
2021/03/02 00:13:35;;;;;;;5.47;2.80;;;;;;;24.38;31.23;157552.31;1630054;87;21238;-70
2021/03/02 00:16:07;;;;;;;4.78;2.80;;;;;;;24.39;31.23;157556.27;1622409;88;21752;-70
2021/03/02 00:18:45;;;;;;;3.47;2.17;;;;;;;24.44;31.19;157569.56;1677118;85;21189;-69
2021/03/02 00:21:20;;;;;;;4.87;2.52;;;;;;;24.49;31.09;157581.53;1626596;87;21722;-70
2021/03/02 00:23:59;;;;;;;6.30;2.20;;;;;;;24.52;31.06;157590.81;1613736;88;21779;-70
2021/03/02 00:26:34;;;;;;;4.47;2.33;;;;;;;24.47;31.08;157577.58;1599712;88;21363;-70
2021/03/02 00:29:06;;;;;;;5.20;2.55;;;;;;;24.46;31.03;157574.92;1648760;87;21344;-70
2021/03/02 00:31:39;;;;;;;4.20;2.30;;;;;;;24.53;30.99;157592.17;1618867;88;21365;-69
2021/03/02 00:34:13;;;;;;;2.60;1.80;;;;;;;24.51;30.94;157588.16;1654043;85;21699;-70
2021/03/02 00:36:46;;;;;;;3.98;2.25;;;;;;;24.48;30.92;157580.19;1682211;85;21221;-70
2021/03/02 00:39:19;;;;;;;4.83;2.58;;;;;;;24.47;30.94;157577.58;1683684;84;21730;-70
2021/03/02 00:41:51;;;;;;;4.20;2.30;;;;;;;24.50;30.94;157585.50;1684342;85;21252;-70
2021/03/02 00:44:23;;;;;;;4.05;2.50;;;;;;;24.51;30.94;157586.86;1675997;85;21193;-70
2021/03/02 00:46:56;;;;;;;3.55;2.33;;;;;;;24.46;30.99;157573.56;1661071;85;21238;-70
2021/03/02 00:49:28;;;;;;;5.05;2.50;;;;;;;24.41;31.02;157561.58;1658790;83;21242;-69
2021/03/02 00:52:01;;;;;;;4.40;2.40;;;;;;;24.38;31.04;157553.61;1673159;85;21189;-69
2021/03/02 00:54:34;;;;;;;4.25;2.25;;;;;;;24.40;31.06;157558.92;1654379;85;21227;-69
2021/03/02 00:57:07;;;;;;;3.70;2.00;;;;;;;24.70;30.72;157639.91;1646769;87;21200;-69
2021/03/02 00:59:39;;;;;;;3.25;1.92;;;;;;;24.84;30.59;157677.08;1648073;85;21188;-70
2021/03/02 01:02:12;;;;;;;4.40;2.35;;;;;;;24.73;30.65;157646.53;1682911;85;21241;-69
2021/03/02 01:04:44;;;;;;;3.20;2.00;;;;;;;24.60;30.80;157612.03;1681365;85;21779;-70
2021/03/02 01:07:17;;;;;;;7.25;3.58;;;;;;;24.54;30.85;157596.13;1624158;87;21209;-69
2021/03/02 01:09:50;;;;;;;3.58;2.50;;;;;;;24.47;30.98;157576.22;1677293;85;21349;-72
2021/03/02 01:12:26;;;;;;;4.62;2.30;;;;;;;24.45;30.96;157570.91;1677447;85;21733;-71
2021/03/02 01:14:59;;;;;;;5.67;2.67;;;;;;;24.37;31.07;157549.66;1677072;85;21823;-71
2021/03/02 01:17:32;;;;;;;4.17;2.75;;;;;;;24.42;31.08;157564.23;1677637;85;21340;-71
2021/03/02 01:20:06;;;;;;;4.00;2.35;;;;;;;24.45;31.00;157570.91;1677400;85;21812;-71
2021/03/02 01:22:40;;;;;;;5.47;2.62;;;;;;;24.47;30.96;157577.58;1650964;85;21340;-71
2021/03/02 01:25:14;;;;;;;5.58;2.20;;;;;;;24.43;30.95;157566.91;1669829;85;21297;-71
2021/03/02 01:27:46;;;;;;;4.67;2.60;;;;;;;24.35;31.03;157544.33;1640196;87;21848;-71
2021/03/02 01:30:20;;;;;;;3.20;2.12;;;;;;;24.34;30.97;157541.69;1587677;89;21205;-71
2021/03/02 01:32:53;;;;;;;6.58;2.77;;;;;;;24.22;31.05;157511.19;1649825;85;21395;-70
2021/03/02 01:35:25;;;;;;;3.72;2.10;;;;;;;24.16;31.10;157493.95;1650067;85;21205;-71
2021/03/02 01:37:57;;;;;;;5.15;2.95;;;;;;;24.16;31.10;157495.25;1638183;86;21236;-71
2021/03/02 01:40:30;;;;;;;4.35;2.27;;;;;;;24.07;31.21;157471.39;1667956;85;21322;-71
2021/03/02 01:43:03;;;;;;;5.03;2.37;;;;;;;24.14;31.18;157488.64;1677321;85;21428;-71
2021/03/02 01:45:37;;;;;;;10.30;2.47;;;;;;;24.04;31.29;157462.13;1636979;86;21490;-71
2021/03/02 01:48:10;;;;;;;7.87;2.92;;;;;;;23.95;31.38;157438.27;1592308;89;21843;-70
2021/03/02 01:50:42;;;;;;;4.67;2.67;;;;;;;23.87;31.47;157417.02;1594987;89;21201;-71
2021/03/02 01:53:16;;;;;;;5.20;2.22;;;;;;;23.87;31.44;157418.38;1623091;87;21383;-71
2021/03/02 01:55:48;;;;;;;6.65;3.08;;;;;;;23.81;31.44;157402.44;1627061;87;21254;-71
2021/03/02 01:58:20;;;;;;;5.70;2.83;;;;;;;23.64;31.58;157355.97;1677191;85;21269;-71
2021/03/02 02:00:58;;;;;;;4.55;2.92;;;;;;;23.73;31.54;157379.83;1676714;85;21317;-70
2021/03/02 02:04:05;;;;;;;5.92;2.87;;;;;;;23.71;31.58;157375.88;1626091;88;21246;-70
2021/03/02 02:06:59;;;;;;;5.40;2.52;;;;;;;23.70;31.56;157371.91;1589634;89;21245;-71
2021/03/02 02:09:45;;;;;;;4.55;2.70;;;;;;;23.68;31.64;157367.91;1620195;88;21257;-70
2021/03/02 02:12:34;;;;;;;6.20;2.83;;;;;;;23.74;31.58;157383.84;1682812;84;21232;-71
2021/03/02 02:15:16;;;;;;;4.50;2.92;;;;;;;23.71;31.65;157374.56;1640753;85;21793;-72
2021/03/02 02:18:03;;;;;;;5.70;2.65;;;;;;;23.80;31.59;157398.47;1626845;87;21264;-70
2021/03/02 02:20:43;;;;;;;5.05;2.77;;;;;;;23.82;31.52;157403.78;1618274;88;21236;-71
2021/03/02 02:23:41;;;;;;;5.37;3.30;;;;;;;23.63;31.71;157353.31;1624872;88;21292;-71
2021/03/02 02:26:21;;;;;;;7.15;2.98;;;;;;;23.64;31.72;157354.67;1625267;88;21379;-71
2021/03/02 02:28:54;;;;;;;4.78;2.62;;;;;;;23.69;31.66;157370.56;1624329;88;21200;-72
2021/03/02 02:31:31;;;;;;;5.40;3.00;;;;;;;23.66;31.64;157361.30;1624535;88;21197;-71
2021/03/02 02:34:03;;;;;;;4.75;3.12;;;;;;;23.65;31.67;157357.33;1648196;87;21246;-71
2021/03/02 02:36:36;;;;;;;5.85;3.20;;;;;;;23.72;31.62;157377.22;1622647;88;21237;-71
2021/03/02 02:39:08;;;;;;;5.53;2.98;;;;;;;23.71;31.64;157374.56;1683416;85;21181;-71
2021/03/02 02:41:41;;;;;;;7.97;3.12;;;;;;;23.74;31.59;157383.84;1682786;85;21210;-71
2021/03/02 02:44:15;;;;;;;4.67;3.08;;;;;;;23.71;31.59;157375.88;1656377;85;21228;-71
2021/03/02 02:46:51;;;;;;;4.50;3.22;;;;;;;23.73;31.57;157379.83;1684230;85;21309;-71
2021/03/02 02:49:24;;;;;;;6.20;2.77;;;;;;;23.77;31.53;157390.50;1683930;85;21677;-71
2021/03/02 02:51:57;;;;;;;5.55;3.15;;;;;;;23.68;31.61;157366.59;1683685;85;21240;-71
2021/03/02 02:54:29;;;;;;;3.75;2.72;;;;;;;23.58;31.72;157340.09;1645176;85;21380;-71
2021/03/02 02:57:01;;;;;;;5.17;2.95;;;;;;;23.53;31.80;157325.52;1620969;88;21266;-71
2021/03/02 02:59:39;;;;;;;4.97;2.92;;;;;;;23.54;31.84;157329.47;1617937;88;21174;-71
2021/03/02 03:02:18;;;;;;;5.90;3.20;;;;;;;23.58;31.84;157340.09;1682847;85;21209;-72
2021/03/02 03:04:55;;;;;;;5.90;3.27;;;;;;;23.53;31.92;157326.81;1658120;85;21181;-71
2021/03/02 03:07:38;;;;;;;8.68;3.58;;;;;;;23.43;32.02;157300.31;1640319;86;21893;-71
2021/03/02 03:10:12;;;;;;;9.40;3.52;;;;;;;23.34;32.17;157276.47;1621227;87;21265;-71
2021/03/02 03:12:47;;;;;;;6.35;3.72;;;;;;;23.26;32.25;157253.92;1663915;85;21701;-71
2021/03/02 03:15:20;;;;;;;6.58;3.90;;;;;;;23.18;32.37;157232.73;1673291;85;21456;-71
2021/03/02 03:17:55;;;;;;;7.92;3.75;;;;;;;23.24;32.31;157248.61;1668241;85;21340;-71
2021/03/02 03:20:27;;;;;;;5.78;3.52;;;;;;;23.28;32.30;157259.23;1677323;85;21190;-71
2021/03/02 03:23:00;;;;;;;7.95;4.00;;;;;;;23.34;32.22;157276.47;1638206;87;21190;-71
2021/03/02 03:25:32;;;;;;;8.25;4.00;;;;;;;23.29;32.26;157263.19;1612296;89;21349;-71
2021/03/02 03:28:06;;;;;;;7.58;4.10;;;;;;;23.31;32.29;157268.50;1677544;85;21328;-70
2021/03/02 03:30:38;;;;;;;7.90;4.33;;;;;;;23.34;32.23;157275.11;1655557;85;21411;-71
2021/03/02 03:33:13;;;;;;;7.28;3.77;;;;;;;23.43;32.15;157299.00;1650354;85;21360;-70
2021/03/02 03:35:46;;;;;;;5.80;3.75;;;;;;;23.54;32.06;157328.17;1650257;87;21217;-71
2021/03/02 03:38:18;;;;;;;11.65;4.90;;;;;;;23.63;31.94;157353.31;1673842;85;21328;-71
2021/03/02 03:40:51;;;;;;;8.23;4.60;;;;;;;23.54;31.97;157329.47;1655611;85;21847;-70
2021/03/02 03:43:23;;;;;;;9.43;5.37;;;;;;;23.60;32.02;157344.06;1650394;85;21201;-70
2021/03/02 03:45:55;;;;;;;10.98;5.78;;;;;;;23.61;31.98;157346.70;1662826;85;21316;-70
2021/03/02 03:48:28;;;;;;;12.35;5.28;;;;;;;23.71;31.86;157375.88;1675234;85;21867;-73
2021/03/02 03:51:00;;;;;;;9.68;5.05;;;;;;;23.47;32.15;157309.58;1676240;85;21210;-71
2021/03/02 03:53:35;;;;;;;8.53;4.75;;;;;;;23.42;32.19;157296.36;1670950;85;21819;-70
2021/03/02 03:56:08;;;;;;;9.23;4.37;;;;;;;23.53;32.11;157325.52;1676681;84;21319;-70
2021/03/02 03:58:41;;;;;;;10.53;5.20;;;;;;;23.58;32.04;157340.09;1675390;84;21334;-71
2021/03/02 04:01:14;;;;;;;7.37;4.28;;;;;;;23.78;31.89;157393.16;1676114;85;21316;-70
2021/03/02 04:03:46;;;;;;;7.85;4.60;;;;;;;23.58;32.03;157340.09;1676298;85;21391;-71
2021/03/02 04:06:20;;;;;;;10.03;4.92;;;;;;;23.63;31.96;157353.31;1636752;87;21374;-72
2021/03/02 04:08:53;;;;;;;9.85;5.10;;;;;;;23.49;32.09;157314.89;1672616;85;21241;-71
2021/03/02 04:11:25;;;;;;;8.95;5.60;;;;;;;23.61;31.99;157348.02;1668726;84;21760;-72
2021/03/02 04:13:58;;;;;;;10.30;5.35;;;;;;;23.29;32.32;157263.19;1672602;85;21217;-72
2021/03/02 04:16:32;;;;;;;9.60;5.37;;;;;;;23.37;32.21;157284.44;1670258;85;22351;-72
2021/03/02 04:19:06;;;;;;;15.50;6.17;;;;;;;23.25;32.37;157252.62;1643780;86;21369;-70
2021/03/02 04:21:38;;;;;;;11.08;6.42;;;;;;;23.20;32.39;157239.34;1676773;85;21766;-71
2021/03/02 04:24:11;;;;;;;9.43;5.30;;;;;;;23.33;32.35;157273.81;1676621;85;21326;-72
2021/03/02 04:26:43;;;;;;;9.78;5.35;;;;;;;23.38;32.30;157287.03;1670933;85;21688;-70
2021/03/02 04:29:15;;;;;;;9.85;5.83;;;;;;;23.49;32.20;157314.89;1666658;85;21225;-70
2021/03/02 04:31:48;;;;;;;11.93;6.90;;;;;;;23.32;32.32;157269.86;1663350;85;21341;-70
2021/03/02 04:34:20;;;;;;;11.75;5.87;;;;;;;23.12;32.48;157216.81;1658835;85;21233;-72
2021/03/02 04:36:53;;;;;;;11.50;6.53;;;;;;;23.17;32.49;157230.08;1676637;85;21253;-70
2021/03/02 04:39:26;;;;;;;12.05;5.92;;;;;;;23.22;32.43;157243.31;1667318;85;21700;-70
2021/03/02 04:41:58;;;;;;;15.65;7.08;;;;;;;23.16;32.50;157227.42;1643512;87;21391;-71
2021/03/02 04:44:31;;;;;;;12.78;7.35;;;;;;;22.96;32.71;157175.69;1618078;87;21278;-71
2021/03/02 04:47:04;;;;;;;11.03;6.20;;;;;;;23.03;32.63;157192.91;1642029;87;21421;-70
2021/03/02 04:49:37;;;;;;;13.62;7.30;;;;;;;23.25;32.51;157251.27;1683828;84;21248;-70
2021/03/02 04:52:10;;;;;;;13.20;7.12;;;;;;;23.20;32.51;157239.34;1686756;84;21483;-72
2021/03/02 04:54:46;;;;;;;13.83;6.72;;;;;;;23.09;32.63;157208.84;1682092;83;21222;-72
2021/03/02 04:57:19;;;;;;;13.13;7.72;;;;;;;23.23;32.50;157247.31;1682330;84;21224;-72
2021/03/02 04:59:52;;;;;;;13.80;7.80;;;;;;;23.30;32.50;157265.84;1683195;84;21265;-74
2021/03/02 05:02:24;;;;;;;13.13;7.42;;;;;;;23.00;32.62;157186.31;1681824;84;21344;-73
2021/03/02 05:04:57;;;;;;;14.80;7.70;;;;;;;23.27;32.48;157257.88;1681182;84;21273;-72
2021/03/02 05:07:30;;;;;;;16.85;8.35;;;;;;;23.34;32.39;157276.47;1681391;84;21411;-80
2021/03/02 05:10:04;;;;;;;14.07;7.50;;;;;;;23.47;32.30;157309.58;1692025;84;21269;-73
2021/03/02 05:12:36;;;;;;;13.55;7.55;;;;;;;23.34;32.31;157276.47;1681925;85;21392;-72
2021/03/02 05:15:10;;;;;;;13.28;7.95;;;;;;;23.52;32.23;157322.86;1685897;84;21352;-70
2021/03/02 05:17:43;;;;;;;13.20;7.53;;;;;;;23.47;32.26;157310.94;1687849;84;21253;-72
2021/03/02 05:20:27;;;;;;;13.13;7.10;;;;;;;23.50;32.21;157318.84;1685459;84;21198;-72
2021/03/02 05:23:19;;;;;;;13.30;7.17;;;;;;;23.44;32.34;157301.63;1685654;84;21367;-70
2021/03/02 05:26:13;;;;;;;14.83;8.25;;;;;;;23.35;32.36;157279.13;1682767;84;21264;-73
2021/03/02 05:28:47;;;;;;;12.78;7.65;;;;;;;23.49;32.29;157316.25;1686293;84;21378;-72
2021/03/02 05:31:35;;;;;;;16.82;8.30;;;;;;;23.26;32.43;157255.22;1685346;84;21173;-74
2021/03/02 05:34:34;;;;;;;14.80;7.47;;;;;;;23.36;32.41;157280.42;1683964;84;21380;-74
2021/03/02 05:37:21;;;;;;;16.65;7.28;;;;;;;23.31;32.44;157268.50;1687311;84;21352;-73
2021/03/02 05:39:55;;;;;;;12.95;7.08;;;;;;;23.28;32.43;157259.23;1684681;84;21395;-78
2021/03/02 05:42:28;;;;;;;14.13;7.60;;;;;;;23.36;32.38;157281.78;1686350;84;21839;-73
2021/03/02 05:45:03;;;;;;;13.58;7.70;;;;;;;23.53;32.24;157326.81;1687957;83;21407;-72
2021/03/02 05:47:35;;;;;;;15.15;7.60;;;;;;;23.51;32.23;157320.20;1684041;84;21892;-75
2021/03/02 05:50:09;;;;;;;14.98;6.62;;;;;;;23.59;32.15;157342.75;1684027;84;21422;-73
2021/03/02 05:52:43;;;;;;;13.48;6.78;;;;;;;23.42;32.26;157296.36;1684065;83;21411;-71
2021/03/02 05:55:16;;;;;;;13.00;6.22;;;;;;;23.55;32.19;157330.83;1703387;84;21220;-75
2021/03/02 05:57:58;;;;;;;13.88;6.78;;;;;;;23.49;32.18;157314.89;1688052;84;21838;-76
2021/03/02 06:00:49;;;;;;;10.60;5.95;;;;;;;23.50;32.24;157317.55;1687688;84;21982;-76
2021/03/02 06:03:49;;;;;;;11.40;6.40;;;;;;;23.42;32.29;157297.66;1686311;84;21953;-76
2021/03/02 06:06:48;;;;;;;12.33;7.30;;;;;;;23.45;32.34;157305.63;1684920;84;21177;-73
2021/03/02 06:09:28;;;;;;;13.05;6.67;;;;;;;23.50;32.29;157317.55;1683710;84;21399;-71
2021/03/02 06:12:19;;;;;;;11.85;6.33;;;;;;;23.62;32.17;157349.36;1685494;83;21402;-69
2021/03/02 06:15:19;;;;;;;9.40;5.75;;;;;;;23.55;32.14;157332.13;1685483;83;21475;-75
2021/03/02 06:18:35;;;;;;;11.78;6.40;;;;;;;23.65;32.13;157358.63;1682437;84;21432;-72
2021/03/02 06:21:16;;;;;;;13.60;6.12;;;;;;;23.72;32.09;157377.22;1684409;84;21582;-73
2021/03/02 06:23:53;;;;;;;8.70;5.72;;;;;;;23.66;32.06;157359.98;1683410;84;21233;-74
2021/03/02 06:26:26;;;;;;;12.73;6.95;;;;;;;23.81;32.03;157401.13;1682854;84;21371;-73
2021/03/02 06:29:03;;;;;;;9.75;5.80;;;;;;;23.74;31.98;157382.48;1683824;84;21632;-74
2021/03/02 06:31:42;;;;;;;14.15;7.65;;;;;;;23.63;32.11;157352.02;1659305;84;21831;-72
2021/03/02 06:34:26;;;;;;;11.57;5.83;;;;;;;23.43;32.34;157299.00;1683956;84;21335;-73
2021/03/02 06:36:59;;;;;;;11.78;6.08;;;;;;;23.68;32.15;157367.91;1682939;84;22046;-72
2021/03/02 06:39:40;;;;;;;12.90;7.28;;;;;;;23.76;32.06;157389.20;1684239;84;21320;-73
2021/03/02 06:42:20;;;;;;;;;;;;;;;23.57;32.18;157337.44;1685919;84;21415;-79
2021/03/02 06:45:16;;;;;;;11.25;6.17;;;;;;;23.64;32.17;157355.97;1688136;84;20340;-75
2021/03/02 06:47:52;;;;;;;14.25;6.50;;;;;;;23.59;32.21;157342.75;1682839;82;21340;-73
2021/03/02 06:50:25;;;;;;;14.63;7.08;;;;;;;23.55;32.26;157332.13;1657082;85;21237;-73
2021/03/02 06:52:57;;;;;;;14.18;6.58;;;;;;;23.75;32.08;157386.55;1683638;84;21450;-73
2021/03/02 06:55:30;;;;;;;14.03;7.00;;;;;;;23.83;32.05;157406.44;1684883;84;21402;-74
2021/03/02 06:58:26;;;;;;;15.43;7.87;;;;;;;23.75;32.06;157385.14;1684538;84;21257;-71
2021/03/02 07:01:06;;;;;;;18.05;8.65;;;;;;;23.80;32.05;157398.47;1683680;84;21304;-73
2021/03/02 07:03:49;;;;;;;14.07;7.08;;;;;;;23.70;32.09;157373.22;1684546;84;21343;-74
2021/03/02 07:06:42;;;;;;;18.07;7.12;;;;;;;23.76;32.09;157387.84;1683747;84;21446;-74
2021/03/02 07:09:21;;;;;;;18.70;7.85;;;;;;;23.88;32.01;157421.03;1684955;83;21395;-74
2021/03/02 07:12:02;;;;;;;15.48;7.67;;;;;;;23.92;31.87;157430.30;1684432;84;21692;-73
2021/03/02 07:14:30;;;;;;;13.95;7.33;;;;;;;23.92;31.91;157430.30;1684177;84;21411;-76
2021/03/02 07:17:21;;;;;;;15.23;7.83;;;;;;;23.80;31.99;157399.78;1684573;82;21343;-73
2021/03/02 07:20:18;;;;;;;20.88;9.30;;;;;;;23.86;32.00;157414.36;1683636;83;21221;-72
2021/03/02 07:22:56;;;;;;;15.05;7.97;;;;;;;24.03;31.89;157459.47;1686240;83;21272;-75
2021/03/02 07:25:29;;;;;;;18.98;8.50;;;;;;;23.96;31.89;157440.88;1683050;83;21225;-74
2021/03/02 07:28:03;;;;;;;19.57;9.68;;;;;;;23.80;31.98;157398.47;1683386;83;21744;-75
2021/03/02 07:30:49;;;;;;;18.85;8.18;;;;;;;23.92;31.91;157430.30;1683804;83;21323;-75
2021/03/02 07:33:26;;;;;;;19.77;9.23;;;;;;;23.91;31.97;157427.64;1683346;83;21806;-76
2021/03/02 07:36:11;;;;;;;19.85;9.18;;;;;;;23.95;31.88;157439.56;1684579;83;21794;-74
2021/03/02 07:39:28;;;;;;;22.42;9.58;;;;;;;23.88;31.96;157419.67;1684131;83;21253;-74
2021/03/02 07:42:09;;;;;;;21.85;9.08;;;;;;;23.83;32.10;157406.44;1683296;83;21703;-74
2021/03/02 07:45:05;;;;;;;17.07;8.78;;;;;;;23.80;32.14;157398.47;1678460;83;21323;-71
2021/03/02 07:48:00;;;;;;;21.85;9.30;;;;;;;23.89;32.06;157423.69;1682495;83;21201;-74
2021/03/02 07:50:35;;;;;;;18.40;9.18;;;;;;;23.98;31.92;157447.53;1684074;83;21823;-76
2021/03/02 07:53:31;;;;;;;23.12;9.98;;;;;;;24.01;31.81;157455.52;1683109;83;21911;-72
2021/03/02 07:56:21;;;;;;;23.77;9.28;;;;;;;24.13;31.69;157487.28;1683996;83;21226;-74
2021/03/02 07:59:16;;;;;;;25.47;9.73;;;;;;;24.22;31.66;157509.84;1684027;83;21447;-74
2021/03/02 08:01:56;;;;;;;;;;;;;;;24.24;31.55;157516.52;1685660;83;21224;-74
2021/03/02 08:04:37;;;;;;;24.50;9.95;;;;;;;24.29;31.52;157529.75;1676245;83;20281;-73
2021/03/02 08:07:27;;;;;;;23.42;9.63;;;;;;;24.23;31.57;157513.86;1684048;83;21257;-74
2021/03/02 08:10:00;;;;;;;26.95;11.50;;;;;;;24.23;31.60;157512.50;1684948;83;21256;-72
2021/03/02 08:12:36;;;;;;;25.80;10.88;;;;;;;24.25;31.63;157517.81;1682925;83;21794;-74
2021/03/02 08:15:18;;;;;;;33.02;11.28;;;;;;;24.24;31.61;157515.16;1682809;83;21256;-75
2021/03/02 08:17:55;;;;;;;33.28;11.20;;;;;;;24.05;31.67;157466.08;1682878;83;22411;-74
2021/03/02 08:20:28;;;;;;;30.70;12.47;;;;;;;23.99;31.70;157448.84;1680637;84;21772;-76
2021/03/02 08:23:01;;;;;;;30.52;11.33;;;;;;;24.04;31.71;157463.42;1684028;84;22452;-73
2021/03/02 08:25:35;;;;;;;29.48;12.15;;;;;;;23.97;31.78;157444.88;1687834;84;21411;-73
2021/03/02 08:28:08;;;;;;;32.40;11.18;;;;;;;23.84;32.01;157410.41;1685016;84;21736;-73
2021/03/02 08:30:42;;;;;;;31.82;11.03;;;;;;;23.86;31.96;157414.36;1671267;84;21190;-73
2021/03/02 08:33:21;;;;;;;26.60;10.00;;;;;;;24.01;31.82;157454.16;1684582;84;21275;-71
2021/03/02 08:35:59;;;;;;;31.97;12.10;;;;;;;24.08;31.80;157472.70;1683949;84;21355;-74
2021/03/02 08:38:42;;;;;;;31.90;11.90;;;;;;;24.20;31.70;157504.53;1684974;84;21665;-73
2021/03/02 08:41:37;;;;;;;26.75;11.08;;;;;;;24.32;31.51;157537.72;1683926;84;21399;-68
2021/03/02 08:44:24;;;;;;;31.97;12.10;;;;;;;24.43;31.42;157566.91;1684005;84;21391;-69
2021/03/02 08:46:57;;;;;;;37.53;12.65;;;;;;;24.48;31.33;157580.19;1684723;84;21292;-70
2021/03/02 08:49:31;;;;;;;35.03;12.60;;;;;;;24.44;31.38;157568.20;1682658;84;21257;-67
2021/03/02 08:52:04;;;;;;;29.42;11.73;;;;;;;24.52;31.38;157589.52;1685544;84;21225;-70
2021/03/02 08:54:51;;;;;;;29.72;11.95;;;;;;;24.58;31.30;157605.41;1677891;84;21400;-70
2021/03/02 08:57:23;;;;;;;35.85;11.25;;;;;;;24.49;31.27;157582.84;1680747;84;21474;-68
2021/03/02 08:59:57;;;;;;;35.55;11.65;;;;;;;24.68;31.10;157634.59;1682745;84;21411;-70
2021/03/02 09:02:29;;;;;;;49.33;13.30;;;;;;;24.56;31.20;157601.44;1683510;85;21925;-73
2021/03/02 09:05:02;;;;;;;37.50;11.12;;;;;;;24.53;31.23;157592.17;1681177;84;21398;-72
2021/03/02 09:07:35;;;;;;;27.87;10.95;;;;;;;24.39;31.28;157556.27;1683567;85;21240;-71
2021/03/02 09:10:18;;;;;;;31.75;13.13;;;;;;;24.35;31.23;157544.33;1683454;85;21407;-71
2021/03/02 09:12:51;;;;;;;34.00;12.10;;;;;;;24.34;31.35;157541.69;1655009;85;21725;-72
2021/03/02 09:15:39;;;;;;;30.20;11.28;;;;;;;24.44;31.20;157568.20;1654269;86;21466;-70
2021/03/02 09:18:16;;;;;;;32.95;11.45;;;;;;;24.48;31.30;157578.87;1617961;88;21463;-73
2021/03/02 09:20:56;;;;;;;27.37;11.48;;;;;;;24.51;31.22;157586.86;1647302;87;21439;-71
2021/03/02 09:23:28;;;;;;;34.73;12.93;;;;;;;24.42;31.32;157562.94;1647500;87;21253;-70
2021/03/02 09:26:01;;;;;;;25.60;9.75;;;;;;;24.33;31.41;157539.02;1653475;85;21840;-70
2021/03/02 09:28:34;;;;;;;28.27;11.25;;;;;;;24.59;31.28;157608.06;1611429;89;21365;-71
2021/03/02 09:31:07;;;;;;;24.45;10.15;;;;;;;24.58;31.23;157605.41;1591267;90;21213;-70
2021/03/02 09:33:39;;;;;;;27.65;10.55;;;;;;;24.58;31.26;157605.41;1584792;90;21242;-71
2021/03/02 09:36:12;;;;;;;27.27;10.50;;;;;;;24.32;31.43;157537.72;1647680;87;21392;-69
2021/03/02 09:38:46;;;;;;;22.58;9.40;;;;;;;24.25;31.41;157517.81;1647729;87;21457;-70
2021/03/02 09:41:39;;;;;;;27.10;9.80;;;;;;;24.20;31.50;157504.53;1611403;87;21270;-70
2021/03/02 09:44:21;;;;;;;27.40;10.03;;;;;;;24.34;31.49;157541.69;1591163;90;21934;-70
2021/03/02 09:47:05;;;;;;;24.32;10.23;;;;;;;24.52;31.32;157590.81;1586542;89;21313;-70
2021/03/02 09:49:42;;;;;;;30.15;10.05;;;;;;;24.59;31.18;157608.06;1650904;85;21257;-71
2021/03/02 09:52:30;;;;;;;29.50;10.05;;;;;;;24.57;31.29;157604.11;1673025;85;21347;-70
2021/03/02 09:55:27;;;;;;;25.25;10.70;;;;;;;24.42;31.38;157564.23;1667692;85;22278;-69
2021/03/02 09:58:18;;;;;;;28.38;10.15;;;;;;;24.49;31.39;157582.84;1671783;85;21217;-70
2021/03/02 10:01:03;;;;;;;25.10;9.60;;;;;;;24.77;31.06;157658.47;1669244;85;21935;-70
2021/03/02 10:03:41;;;;;;;25.48;9.28;;;;;;;24.63;31.10;157618.69;1669800;85;21285;-69
2021/03/02 10:06:13;;;;;;;28.23;10.43;;;;;;;24.51;31.19;157588.16;1661835;85;21374;-70
2021/03/02 10:08:49;;;;;;;24.77;9.93;;;;;;;24.54;31.28;157596.13;1675507;85;21285;-69
2021/03/02 10:11:23;;;;;;;21.52;9.53;;;;;;;24.74;31.01;157649.19;1659228;85;21418;-72
2021/03/02 10:14:02;;;;;;;23.87;9.70;;;;;;;24.80;31.08;157665.12;1649141;87;21368;-69
2021/03/02 10:16:38;;;;;;;27.07;9.33;;;;;;;24.76;31.00;157655.86;1652486;85;21328;-72
2021/03/02 10:19:23;;;;;;;21.70;9.13;;;;;;;24.85;30.89;157679.72;1676431;85;21269;-72
2021/03/02 10:21:56;;;;;;;26.68;10.20;;;;;;;25.02;30.76;157723.52;1681537;85;21225;-71
2021/03/02 10:24:30;;;;;;;27.20;10.45;;;;;;;25.03;30.87;157727.48;1683106;85;21244;-72
2021/03/02 10:27:17;;;;;;;27.70;10.93;;;;;;;24.97;30.83;157710.22;1683177;85;21268;-71
2021/03/02 10:29:50;;;;;;;26.65;11.00;;;;;;;25.02;30.90;157724.81;1683099;85;21846;-71
2021/03/02 10:32:23;;;;;;;25.17;9.63;;;;;;;24.86;30.90;157682.39;1682971;85;21182;-71
2021/03/02 10:34:55;;;;;;;26.87;10.53;;;;;;;24.71;30.92;157642.56;1672231;85;21292;-70
2021/03/02 10:37:28;;;;;;;24.50;10.98;;;;;;;24.57;31.13;157604.11;1654208;87;21265;-71
2021/03/02 10:40:00;;;;;;;28.32;10.32;;;;;;;24.72;31.05;157645.22;1654121;87;21300;-70
2021/03/02 10:42:33;;;;;;;27.90;10.80;;;;;;;24.84;30.94;157675.72;1654099;87;21312;-71
2021/03/02 10:45:06;;;;;;;25.52;10.05;;;;;;;24.88;30.98;157686.34;1653979;87;21292;-70
2021/03/02 10:47:39;;;;;;;27.65;10.90;;;;;;;24.93;31.04;157700.94;1654136;87;21288;-70
2021/03/02 10:50:14;;;;;;;25.55;11.25;;;;;;;24.96;30.95;157707.56;1653769;86;21320;-70
2021/03/02 10:52:47;;;;;;;27.90;11.18;;;;;;;25.14;30.65;157756.73;1653888;87;21788;-70
2021/03/02 10:55:19;;;;;;;29.42;10.98;;;;;;;25.00;30.73;157719.50;1665656;85;21244;-70
2021/03/02 10:57:52;;;;;;;29.35;11.63;;;;;;;25.05;30.77;157732.80;1678974;84;21245;-69
2021/03/02 11:00:26;;;;;;;26.60;10.93;;;;;;;25.05;30.79;157731.50;1682952;85;21308;-70
2021/03/02 11:02:59;;;;;;;25.00;10.98;;;;;;;24.94;30.85;157702.30;1677797;85;21233;-72
2021/03/02 11:05:32;;;;;;;34.27;12.37;;;;;;;24.88;30.85;157687.66;1679715;85;21260;-70
2021/03/02 11:08:05;;;;;;;29.27;10.75;;;;;;;24.89;30.82;157690.31;1678908;85;21280;-71
2021/03/02 11:10:37;;;;;;;26.70;11.85;;;;;;;25.03;30.78;157727.48;1681738;85;21256;-72
2021/03/02 11:13:12;;;;;;;28.35;10.90;;;;;;;24.98;30.70;157714.23;1657333;83;21903;-72
2021/03/02 11:15:44;;;;;;;25.72;11.60;;;;;;;25.02;30.68;157723.52;1677258;85;21256;-71
2021/03/02 11:18:17;;;;;;;26.35;11.35;;;;;;;25.11;30.67;157748.81;1681903;85;21779;-72
2021/03/02 11:20:50;;;;;;;28.90;11.68;;;;;;;25.18;30.57;157766.00;1682985;85;21795;-72
2021/03/02 11:23:22;;;;;;;33.67;12.80;;;;;;;25.24;30.53;157783.27;1676836;85;21898;-71
2021/03/02 11:25:54;;;;;;;29.10;11.57;;;;;;;25.21;30.48;157775.34;1681488;85;21375;-71
2021/03/02 11:28:27;;;;;;;31.02;11.88;;;;;;;25.24;30.51;157783.27;1682791;85;21332;-72
2021/03/02 11:31:00;;;;;;;26.80;11.75;;;;;;;25.29;30.40;157795.25;1679136;85;22333;-71
2021/03/02 11:33:33;;;;;;;35.75;12.63;;;;;;;25.32;30.46;157803.19;1682861;84;21815;-72
2021/03/02 11:36:07;;;;;;;27.45;12.28;;;;;;;25.34;30.40;157808.50;1670566;85;21749;-72
2021/03/02 11:38:40;;;;;;;30.05;12.33;;;;;;;25.33;30.34;157807.20;1680275;84;21535;-71
2021/03/02 11:41:12;;;;;;;30.40;11.95;;;;;;;25.32;30.41;157804.55;1650643;85;21221;-72
2021/03/02 11:43:45;;;;;;;24.07;11.63;;;;;;;25.40;30.27;157825.77;1675243;85;21242;-71
2021/03/02 11:46:18;;;;;;;29.40;11.33;;;;;;;25.18;30.33;157767.36;1675186;85;21344;-71
2021/03/02 11:48:50;;;;;;;28.85;10.82;;;;;;;25.27;30.35;157789.94;1677506;85;21236;-72
2021/03/02 11:51:23;;;;;;;28.77;10.93;;;;;;;25.35;30.24;157812.47;1681277;84;21672;-71
2021/03/02 11:53:55;;;;;;;29.37;11.93;;;;;;;25.40;30.22;157825.77;1686123;84;21252;-72
2021/03/02 11:56:28;;;;;;;31.87;13.08;;;;;;;25.44;30.04;157836.41;1677941;84;21398;-72
2021/03/02 11:59:00;;;;;;;30.65;11.48;;;;;;;25.49;29.96;157849.64;1679724;85;22553;-71
2021/03/02 12:01:35;;;;;;;31.07;11.68;;;;;;;25.56;30.01;157866.91;1680710;84;21297;-72
2021/03/02 12:04:08;;;;;;;34.70;12.88;;;;;;;25.52;30.04;157857.63;1682539;85;21375;-74